Flight Track Log - Related Links

Times and Time Zones

All times are in EDT time to prevent confusion due to time zone crossing. See the UPS1338 flight status page for this flight to view local times or setup timezone preferences in your user account.

Time Position Orientation Groundspeed Altitude Reporting Facility
EDT Latitude Longitude Course Direction KTS MPH feet Rate Location/Type
Thu 05:07:25 AM 38.1005 -85.6981 163° South 266 306 3,800  Level FlightAware ADS-B
Thu 05:08:26 AM 38.0391 -85.6460 142° Southeast 279 321 8,100 3,669 Climbing FlightAware ADS-B
Thu 05:09:26 AM 37.9661 -85.5981 166° South 318 366 11,200 2,350 Climbing FlightAware ADS-B
Thu 05:10:26 AM 37.8679 -85.5641 165° South 400 460 12,800 2,400 Climbing FlightAware ADS-B
Thu 05:11:26 AM 37.7614 -85.5305 166° South 415 478 16,000 2,924 Climbing FlightAware ADS-B
Thu 05:12:25 AM 37.6539 -85.4962 166° South 437 503 18,600 2,672 Climbing FlightAware ADS-B
Thu 05:13:25 AM 37.5296 -85.4556 165° South 451 519 21,300 2,529 Climbing FlightAware ADS-B
Thu 05:14:26 AM 37.3987 -85.4147 166° South 465 535 23,700 2,033 Climbing FlightAware ADS-B
Thu 05:15:26 AM 37.2773 -85.3752 165° South 488 562 25,400 1,767 Climbing FlightAware ADS-B
Thu 05:17:26 AM 37.0029 -85.2868 166° South 508 585 29,000 1,828 Climbing FlightAware ADS-B
Thu 05:17:57 AM 36.9307 -85.2638 166° South 508 585 30,000 972 Climbing FlightAware ADS-B
Thu 05:21:33 AM 36.4477 -85.1106 166° South 492 566 33,000 690 Climbing FlightAware ADS-B (KMDQ)
Thu 05:22:18 AM 36.3530 -85.0812 166° South 489 563 33,000  Level FlightAware ADS-B
Thu 05:23:29 AM 36.1935 -85.0315 166° South 488 562 33,000  Level FlightAware ADS-B (KMDQ)
Thu 05:26:21 AM 35.8171 -84.9141 166° South 489 563 33,000  Level FlightAware ADS-B (KMDQ)
Thu 05:27:11 AM 35.7075 -84.8805 166° South 489 563 33,000  Level FlightAware ADS-B (KMDQ)
Thu 05:29:31 AM 35.3981 -84.7860 166° South 492 566 33,000  Level FlightAware ADS-B (KMDQ)
Thu 05:30:11 AM 35.3171 -84.7612 166° South 493 567 33,000  Level FlightAware ADS-B (KMDQ)
Thu 05:30:51 AM 35.2554 -84.7424 166° South 494 568 33,000  Level FlightAware ADS-B (KMDQ)
Thu 05:32:13 AM 35.0594 -84.6858 166° South 491 565 33,000  Level Atlanta Center
Thu 05:33:13 AM 34.9261 -84.6467 166° South 491 565 33,000  Level Atlanta Center
Thu 05:34:13 AM 34.7928 -84.6078 167° South 491 565 33,000  Level Atlanta Center
Thu 05:35:13 AM 34.6508 -84.5614 165° South 491 565 33,000  Level Atlanta Center
Thu 05:36:13 AM 34.5175 -84.5203 166° South 483 556 33,000  Level Atlanta Center
Thu 05:37:13 AM 34.3861 -84.4817 166° South 483 556 33,000  Level Atlanta Center
Thu 05:38:13 AM 34.2550 -84.4408 166° South 488 562 33,000  Level Atlanta Center
Thu 05:39:13 AM 34.1153 -84.4025 167° South 494 568 33,000  Level Atlanta Center
Thu 05:40:13 AM 33.9817 -84.3619 166° South 494 568 33,000  Level Atlanta Center
Thu 05:41:13 AM 33.8544 -84.3239 166° South 489 563 33,000  Level Atlanta Center
Thu 05:42:13 AM 33.7208 -84.2861 167° South 489 563 33,000  Level Atlanta Center
Thu 05:43:13 AM 33.5894 -84.2458 166° South 489 563 33,000  Level Atlanta Center
Thu 05:44:13 AM 33.4853 -84.2156 166° South 489 563 33,000  Level Atlanta Center
Thu 05:45:13 AM 33.3411 -84.1756 167° South 484 557 33,000  Level Atlanta Center
Thu 05:46:13 AM 33.2119 -84.1381 166° South 484 557 33,000  Level Atlanta Center
Thu 05:47:13 AM 33.0825 -84.1008 166° South 489 563 33,000  Level Atlanta Center
Thu 05:48:13 AM 32.9531 -84.0661 167° South 489 563 33,000  Level Atlanta Center
Thu 05:49:13 AM 32.8236 -84.0239 165° South 484 557 33,000  Level Atlanta Center
Thu 05:50:13 AM 32.6922 -83.9894 168° South 484 557 33,000  Level Atlanta Center
Thu 05:52:03 AM 32.4525 -83.9192 166° South 498 573 33,000  Level Jacksonville Center
Thu 05:53:03 AM 32.3233 -83.8833 167° South 487 560 33,000  Level Jacksonville Center
Thu 05:54:03 AM 32.1942 -83.8450 166° South 487 560 33,000  Level Jacksonville Center
Thu 05:55:03 AM 32.0631 -83.8094 167° South 487 560 33,000  Level Jacksonville Center
Thu 05:56:03 AM 31.9358 -83.7714 166° South 487 560 33,000  Level Jacksonville Center
Thu 05:57:03 AM 31.7942 -83.7286 166° South 487 560 33,000 -50 Level Jacksonville Center
Thu 05:58:03 AM 31.6650 -83.6933 167° South 487 560 32,900  Descending Jacksonville Center
Thu 06:03:01 AM 31.0054 -83.5451 170° South 482 555 33,000 10 Climbing FlightAware ADS-B (KONZ)
Thu 06:07:57 AM 30.3527 -83.4058 170° South 485 558 33,000  Level FlightAware ADS-B (KONZ)
Thu 06:09:03 AM 30.2133 -83.3781 170° South 486 559 33,000  Level Jacksonville Center
Thu 06:10:03 AM 30.0819 -83.3486 169° South 486 559 33,000  Level Jacksonville Center
Thu 06:11:03 AM 29.9506 -83.3217 170° South 486 559 33,000  Level Jacksonville Center
Thu 06:12:03 AM 29.8169 -83.2972 171° South 486 559 33,000  Level Jacksonville Center
Thu 06:13:03 AM 29.6981 -83.2728 170° South 486 559 33,000 -250 Level Jacksonville Center
Thu 06:14:03 AM 29.5561 -83.2411 169° South 478 550 32,500 -1,050 Descending Jacksonville Center
Thu 06:15:03 AM 29.4353 -83.2144 169° South 478 550 30,900 -1,850 Descending Jacksonville Center
Thu 06:16:03 AM 29.3036 -83.1878 170° South 483 556 28,800 -5,950 Descending Jacksonville Center
Thu 06:17:03 AM 29.1744 -83.1614 170° South 483 556 19,000 -3,900 Descending Jacksonville Center
Thu 06:18:03 AM 29.0450 -83.1325 169° South 483 556 21,000 50 Climbing Jacksonville Center
Thu 06:19:03 AM 28.9219 -83.1083 170° South 471 542 19,100 -2,300 Descending Jacksonville Center
Thu 06:20:03 AM 28.8008 -83.0822 169° South 452 520 16,400 -2,045 Descending Jacksonville Center
Thu 06:22:02 AM 28.5667 -83.0333 170° South 396 456 13,000 -1,575 Descending Tampa TRACON
Thu 06:23:02 AM 28.4667 -83.0167 172° South 390 449 11,700 -1,350 Descending Tampa TRACON
Thu 06:24:02 AM 28.3667 -82.9667 156° South 342 394 10,300 -1,050 Descending Tampa TRACON
Thu 06:25:02 AM 28.2833 -82.9333 161° South 295 339 9,600 -1,041 Descending Tampa TRACON
Thu 06:26:03 AM 28.2167 -82.9000 156° South 288 331 8,200 -1,438 Descending Tampa TRACON
Thu 06:27:03 AM 28.1500 -82.8667 156° South 278 320 6,700 -1,600 Descending Tampa TRACON
Thu 06:28:03 AM 28.0833 -82.8333 156° South 264 304 5,000 -1,900 Descending Tampa TRACON
Thu 06:29:03 AM 28.0000 -82.8167 170° South 266 306 2,900 -1,200 Descending Tampa TRACON
Thu 06:30:03 AM 27.9333 -82.7833 156° South 227 261 2,600 -150 Descending Tampa TRACON
Thu 06:31:03 AM 27.8667 -82.7833 180° South 218 251 2,600 -250 Level Tampa TRACON
Thu 06:32:03 AM 27.8167 -82.7667 164° South 214 246 2,100 -300 Descending Tampa TRACON
Thu 06:33:03 AM 27.8000 -82.7167 111° Southeast 171 197 2,000 -400 Descending Tampa TRACON
Thu 06:34:03 AM 27.8333 -82.6833 41° Northeast 164 189 1,300 -684 Descending Tampa TRACON
Thu 06:34:57 AM 27.8667 -82.6833 360° North 124 143 700 -667 Descending Tampa TRACON

Login

Don't have an account? Register now (free) for customized features, flight alerts, and more!